Mackinaw City, MI

8:07 PM EDT on August 03, 2015 (GMT -0400)
MesoWest | | Change Station
CLOSE
Current Station
Personal Weather Station
Location: Mackinaw City, MI
Elevation: 646 ft
Nearby Weather Stations

Elev 646 ft 45.76 °N, 84.73 °W | Updated 37 minutes ago

Overcast
Overcast
65 °F
Feels Like 65 °F
N
7
Wind Variable Wind from NNE
Gusts 17.0 mph

Today
High -- | Low -- °F
--% Chance of Precip.
Yesterday
High -- | Low -- °F
Precip. -- in
6:24 AM 9:05 PM
Waning Gibbous, 83% visible
Pressure 29.77 in
Visibility 10.0 miles
Clouds Scattered Clouds 7000 ft
Dew Point 58 °F
Humidity 77%
Rainfall in
Snow Depth Not available.
UV 0 out of 12
Pollen 5.40 out of 12
Air Quality Not available.
Flu Activity Not available.
METAR KMCD 032354Z AUTO 27010KT 10SM SCT070 18/13 A2977 RMK AO2 T01750132

More Conditions Fewer Conditions

Pressure 29.77 in
Visibility 10.0 miles
Clouds Scattered Clouds 7000 ft
Dew Point 58 °F
Humidity 77%
Rainfall in
Snow Depth Not available.
UV 0 out of 12
Pollen 5.40 out of 12
Air Quality Not available.
Flu Activity Not available.
METAR KMCD 032354Z AUTO 27010KT 10SM SCT070 18/13 A2977 RMK AO2 T01750132

More Conditions Fewer Conditions

Nowcast | as of 8:00 PM EDT on August 3, 2015

At 9 PM...mostly cloudy. Chance of showers. Temperature 62. Northwest winds 7 mph. At 11 PM...partly cloudy. Chance of showers. Temperature 58. Light winds. At 1 am...partly cloudy. Chance of showers. Temperature 56. Light winds. At 3 am...partly cloudy. Scattered showers and isolated thunderstorms. Temperature 55. Light winds.

×

10-Day Weather Forecast

×

Almanac

Astronomy

Aug. 03, 2015 Rise Set
Actual Time
Civil Twilight
Nautical Twilight
Astronomical Twilight
Moon
Length of Visible Light
Length of Day
Tomorrow will be .
, % of the Moon is Illuminated

Today's Extremes

State Highs State Lows

Community

WunderPhotos

Upload Photos

1,843,788 photos uploaded!

WunderBlogs® & News

Nearby

Air Quality

  Air Quality AQ Index Pollutant
Not available.

Snow Depth

Station Depth Elevation

Earthquake Activity

City Distance Mag. Time & Date
Minimum magnitude displayed is 2.5.

Coastal Water Temperatures

Place Temperature

Stations

Nearby Weather Stations

Station Location Temp. Windchill Dew Point Humidity Wind Precip. Elev Updated Type